Main page
METAR-TAF:

METAR-TAF

Airports :

Épinal – Mirecourt Airport

Épinal, France

latitude: 48-19-31N, longitude: 6-04-00E, elevation: 330 m

Current weather observation

The report was made 13 minutes ago, at 09:30 UTC
Wind 2 kt from variable directions
Temperature 14°C
Humidity 82%
Pressure 1006 hPa
Visibility 10 km or more
Broken clouds at a height of 1600 ft
Overcast at a height of 2400 ft

METAR: LFSG 190930Z AUTO VRB02KT 9999 BKN016 OVC024 14/11 Q1006

Time: 11:43 (09:43 UTC)


TAF: missing

Weather observations and forecasts of more than 4000 airports (METAR and TAF reports).

The available stations are represented by yellow and red dots on the map.

Hover mouse over dot to see the name of the station.

Then click to see weather observations and forecasts.

To change the map : click on the green buttons with a black cross to zoom in, on the green button with a dash to zoom out, or on the green arrows for adjacent maps.


METAR-TAF: